sensor_id;sensor_type;location;lat;lon;timestamp;P1;durP1;ratioP1;P2;durP2;ratioP2
70216;SDS011;65567;55.684;37.570;2022-12-13T00:01:46;2.55;;;1.83;;
70216;SDS011;65567;55.684;37.570;2022-12-13T00:04:15;1.67;;;1.08;;
70216;SDS011;65567;55.684;37.570;2022-12-13T00:06:41;3.10;;;1.95;;
70216;SDS011;65567;55.684;37.570;2022-12-13T00:09:07;3.03;;;2.10;;
70216;SDS011;65567;55.684;37.570;2022-12-13T00:11:33;3.47;;;2.10;;
70216;SDS011;65567;55.684;37.570;2022-12-13T00:14:00;3.42;;;2.13;;
70216;SDS011;65567;55.684;37.570;2022-12-13T00:16:26;2.22;;;1.17;;
70216;SDS011;65567;55.684;37.570;2022-12-13T00:18:53;3.20;;;2.00;;
70216;SDS011;65567;55.684;37.570;2022-12-13T00:21:21;2.95;;;1.65;;
70216;SDS011;65567;55.684;37.570;2022-12-13T00:23:50;3.83;;;2.05;;
70216;SDS011;65567;55.684;37.570;2022-12-13T00:26:17;3.47;;;2.40;;
70216;SDS011;65567;55.684;37.570;2022-12-13T00:28:45;3.28;;;1.90;;
70216;SDS011;65567;55.684;37.570;2022-12-13T00:31:14;4.75;;;3.35;;
70216;SDS011;65567;55.684;37.570;2022-12-13T00:33:40;3.35;;;2.03;;
70216;SDS011;65567;55.684;37.570;2022-12-13T00:36:06;6.90;;;4.57;;
70216;SDS011;65567;55.684;37.570;2022-12-13T00:38:33;2.67;;;1.60;;
70216;SDS011;65567;55.684;37.570;2022-12-13T00:41:13;4.90;;;2.80;;
70216;SDS011;65567;55.684;37.570;2022-12-13T00:43:40;5.43;;;3.25;;
70216;SDS011;65567;55.684;37.570;2022-12-13T00:46:12;4.80;;;3.40;;
70216;SDS011;65567;55.684;37.570;2022-12-13T00:48:40;3.40;;;1.85;;
70216;SDS011;65567;55.684;37.570;2022-12-13T00:51:07;4.63;;;2.70;;
70216;SDS011;65567;55.684;37.570;2022-12-13T00:53:34;4.55;;;2.90;;
70216;SDS011;65567;55.684;37.570;2022-12-13T00:56:00;7.18;;;4.13;;
70216;SDS011;65567;55.684;37.570;2022-12-13T00:58:26;4.00;;;3.05;;
70216;SDS011;65567;55.684;37.570;2022-12-13T01:00:52;4.38;;;3.30;;
70216;SDS011;65567;55.684;37.570;2022-12-13T01:03:18;4.32;;;3.05;;
70216;SDS011;65567;55.684;37.570;2022-12-13T01:05:52;3.60;;;2.60;;
70216;SDS011;65567;55.684;37.570;2022-12-13T01:08:18;3.03;;;2.15;;
70216;SDS011;65567;55.684;37.570;2022-12-13T01:10:45;4.32;;;3.00;;
70216;SDS011;65567;55.684;37.570;2022-12-13T01:13:12;6.05;;;4.35;;
70216;SDS011;65567;55.684;37.570;2022-12-13T01:15:39;3.38;;;1.98;;
70216;SDS011;65567;55.684;37.570;2022-12-13T01:20:38;4.97;;;3.58;;
70216;SDS011;65567;55.684;37.570;2022-12-13T01:23:05;2.88;;;2.15;;
70216;SDS011;65567;55.684;37.570;2022-12-13T01:25:31;2.85;;;1.40;;
70216;SDS011;65567;55.684;37.570;2022-12-13T01:27:58;4.65;;;3.30;;
70216;SDS011;65567;55.684;37.570;2022-12-13T01:30:24;6.15;;;3.83;;
70216;SDS011;65567;55.684;37.570;2022-12-13T01:32:50;5.13;;;3.47;;
70216;SDS011;65567;55.684;37.570;2022-12-13T01:35:16;2.63;;;2.00;;
70216;SDS011;65567;55.684;37.570;2022-12-13T01:37:42;3.53;;;2.38;;
70216;SDS011;65567;55.684;37.570;2022-12-13T01:40:08;5.90;;;3.25;;
70216;SDS011;65567;55.684;37.570;2022-12-13T01:42:38;4.13;;;2.80;;
70216;SDS011;65567;55.684;37.570;2022-12-13T01:45:18;2.55;;;1.50;;
70216;SDS011;65567;55.684;37.570;2022-12-13T01:47:50;3.72;;;2.60;;
70216;SDS011;65567;55.684;37.570;2022-12-13T01:50:29;2.90;;;2.10;;
70216;SDS011;65567;55.684;37.570;2022-12-13T01:52:59;3.55;;;2.50;;
70216;SDS011;65567;55.684;37.570;2022-12-13T01:55:30;3.80;;;2.25;;
70216;SDS011;65567;55.684;37.570;2022-12-13T01:58:00;7.15;;;4.20;;
70216;SDS011;65567;55.684;37.570;2022-12-13T02:00:27;4.45;;;2.78;;
70216;SDS011;65567;55.684;37.570;2022-12-13T02:02:59;5.88;;;4.40;;
70216;SDS011;65567;55.684;37.570;2022-12-13T02:05:27;6.85;;;4.00;;
70216;SDS011;65567;55.684;37.570;2022-12-13T02:07:59;4.82;;;3.40;;
70216;SDS011;65567;55.684;37.570;2022-12-13T02:10:26;5.78;;;3.75;;
70216;SDS011;65567;55.684;37.570;2022-12-13T02:12:54;4.43;;;3.38;;
70216;SDS011;65567;55.684;37.570;2022-12-13T02:15:20;6.65;;;4.53;;
70216;SDS011;65567;55.684;37.570;2022-12-13T02:31:36;4.93;;;2.70;;
70216;SDS011;65567;55.684;37.570;2022-12-13T02:34:20;6.45;;;4.10;;
70216;SDS011;65567;55.684;37.570;2022-12-13T02:36:55;6.65;;;4.05;;
70216;SDS011;65567;55.684;37.570;2022-12-13T02:39:34;5.72;;;3.85;;
70216;SDS011;65567;55.684;37.570;2022-12-13T02:42:16;4.07;;;2.58;;
70216;SDS011;65567;55.684;37.570;2022-12-13T02:45:30;5.93;;;3.40;;
70216;SDS011;65567;55.684;37.570;2022-12-13T02:47:43;4.38;;;2.42;;
70216;SDS011;65567;55.684;37.570;2022-12-13T02:50:10;2.30;;;1.70;;
70216;SDS011;65567;55.684;37.570;2022-12-13T02:52:38;3.70;;;2.50;;
70216;SDS011;65567;55.684;37.570;2022-12-13T02:55:08;2.90;;;2.03;;
70216;SDS011;65567;55.684;37.570;2022-12-13T02:57:38;3.88;;;2.38;;
70216;SDS011;65567;55.684;37.570;2022-12-13T03:00:07;4.28;;;2.78;;
70216;SDS011;65567;55.684;37.570;2022-12-13T03:05:45;3.92;;;2.38;;
70216;SDS011;65567;55.684;37.570;2022-12-13T03:08:58;5.10;;;3.15;;
70216;SDS011;65567;55.684;37.570;2022-12-13T03:11:50;4.68;;;2.42;;
70216;SDS011;65567;55.684;37.570;2022-12-13T03:14:57;5.22;;;3.17;;
70216;SDS011;65567;55.684;37.570;2022-12-13T03:17:33;4.63;;;3.30;;
70216;SDS011;65567;55.684;37.570;2022-12-13T03:20:05;4.68;;;3.50;;
70216;SDS011;65567;55.684;37.570;2022-12-13T03:22:33;6.90;;;5.03;;
70216;SDS011;65567;55.684;37.570;2022-12-13T03:24:59;6.88;;;5.07;;
70216;SDS011;65567;55.684;37.570;2022-12-13T03:27:25;7.78;;;4.03;;
70216;SDS011;65567;55.684;37.570;2022-12-13T03:29:51;6.13;;;4.82;;
70216;SDS011;65567;55.684;37.570;2022-12-13T03:32:17;7.15;;;4.55;;
70216;SDS011;65567;55.684;37.570;2022-12-13T03:34:43;7.03;;;5.03;;
70216;SDS011;65567;55.684;37.570;2022-12-13T03:37:09;5.68;;;3.75;;
70216;SDS011;65567;55.684;37.570;2022-12-13T03:39:35;3.90;;;2.45;;
70216;SDS011;65567;55.684;37.570;2022-12-13T03:42:01;6.68;;;4.68;;
70216;SDS011;65567;55.684;37.570;2022-12-13T03:44:33;5.07;;;2.75;;
70216;SDS011;65567;55.684;37.570;2022-12-13T03:46:59;5.50;;;3.70;;
70216;SDS011;65567;55.684;37.570;2022-12-13T03:49:25;6.97;;;4.85;;
70216;SDS011;65567;55.684;37.570;2022-12-13T03:51:50;7.43;;;4.35;;
70216;SDS011;65567;55.684;37.570;2022-12-13T03:54:16;6.63;;;4.13;;
70216;SDS011;65567;55.684;37.570;2022-12-13T03:56:42;5.13;;;3.50;;
70216;SDS011;65567;55.684;37.570;2022-12-13T03:59:08;4.97;;;3.03;;
70216;SDS011;65567;55.684;37.570;2022-12-13T04:01:34;5.32;;;3.35;;
70216;SDS011;65567;55.684;37.570;2022-12-13T04:03:59;5.55;;;2.83;;
70216;SDS011;65567;55.684;37.570;2022-12-13T04:06:25;7.90;;;4.15;;
70216;SDS011;65567;55.684;37.570;2022-12-13T04:08:51;4.60;;;2.67;;
70216;SDS011;65567;55.684;37.570;2022-12-13T04:11:17;6.88;;;5.20;;
70216;SDS011;65567;55.684;37.570;2022-12-13T04:14:03;4.07;;;2.75;;
70216;SDS011;65567;55.684;37.570;2022-12-13T04:16:28;4.28;;;2.05;;
70216;SDS011;65567;55.684;37.570;2022-12-13T04:18:54;6.80;;;5.28;;
70216;SDS011;65567;55.684;37.570;2022-12-13T04:21:20;7.47;;;5.80;;
70216;SDS011;65567;55.684;37.570;2022-12-13T04:23:46;3.63;;;2.35;;
70216;SDS011;65567;55.684;37.570;2022-12-13T04:26:12;4.90;;;3.28;;
70216;SDS011;65567;55.684;37.570;2022-12-13T04:28:38;6.45;;;3.42;;
70216;SDS011;65567;55.684;37.570;2022-12-13T04:31:03;5.00;;;2.72;;
70216;SDS011;65567;55.684;37.570;2022-12-13T04:33:30;5.88;;;2.85;;
70216;SDS011;65567;55.684;37.570;2022-12-13T04:35:56;7.95;;;5.97;;
70216;SDS011;65567;55.684;37.570;2022-12-13T04:38:22;4.82;;;2.65;;
70216;SDS011;65567;55.684;37.570;2022-12-13T04:40:48;4.70;;;3.05;;
70216;SDS011;65567;55.684;37.570;2022-12-13T04:43:14;4.68;;;3.08;;
70216;SDS011;65567;55.684;37.570;2022-12-13T04:45:40;8.63;;;5.25;;
70216;SDS011;65567;55.684;37.570;2022-12-13T04:48:06;3.30;;;2.30;;
70216;SDS011;65567;55.684;37.570;2022-12-13T04:50:32;7.95;;;5.25;;
70216;SDS011;65567;55.684;37.570;2022-12-13T04:52:59;2.63;;;1.42;;
70216;SDS011;65567;55.684;37.570;2022-12-13T04:55:25;4.68;;;3.45;;
70216;SDS011;65567;55.684;37.570;2022-12-13T04:57:51;8.63;;;4.43;;
70216;SDS011;65567;55.684;37.570;2022-12-13T05:00:16;7.85;;;4.78;;
70216;SDS011;65567;55.684;37.570;2022-12-13T05:02:42;9.70;;;5.40;;
70216;SDS011;65567;55.684;37.570;2022-12-13T05:05:08;8.00;;;5.55;;
70216;SDS011;65567;55.684;37.570;2022-12-13T05:07:35;5.32;;;3.05;;
70216;SDS011;65567;55.684;37.570;2022-12-13T05:10:02;10.23;;;7.00;;
70216;SDS011;65567;55.684;37.570;2022-12-13T05:12:28;6.28;;;3.72;;
70216;SDS011;65567;55.684;37.570;2022-12-13T05:14:54;3.70;;;2.22;;
70216;SDS011;65567;55.684;37.570;2022-12-13T05:17:20;4.55;;;3.03;;
70216;SDS011;65567;55.684;37.570;2022-12-13T05:19:46;6.82;;;3.50;;
70216;SDS011;65567;55.684;37.570;2022-12-13T05:22:12;2.83;;;1.70;;
70216;SDS011;65567;55.684;37.570;2022-12-13T05:24:42;5.53;;;2.53;;
70216;SDS011;65567;55.684;37.570;2022-12-13T05:27:09;9.32;;;5.68;;
70216;SDS011;65567;55.684;37.570;2022-12-13T05:29:36;10.45;;;5.07;;
70216;SDS011;65567;55.684;37.570;2022-12-13T05:32:02;6.80;;;3.33;;
70216;SDS011;65567;55.684;37.570;2022-12-13T05:34:28;8.90;;;4.78;;
70216;SDS011;65567;55.684;37.570;2022-12-13T05:36:54;7.82;;;3.97;;
70216;SDS011;65567;55.684;37.570;2022-12-13T05:39:20;3.70;;;2.30;;
70216;SDS011;65567;55.684;37.570;2022-12-13T05:41:46;3.13;;;2.13;;
70216;SDS011;65567;55.684;37.570;2022-12-13T05:44:12;11.68;;;4.47;;
70216;SDS011;65567;55.684;37.570;2022-12-13T05:46:40;4.75;;;2.35;;
70216;SDS011;65567;55.684;37.570;2022-12-13T05:49:06;5.05;;;2.70;;
70216;SDS011;65567;55.684;37.570;2022-12-13T05:51:32;11.38;;;5.63;;
70216;SDS011;65567;55.684;37.570;2022-12-13T05:53:58;5.53;;;1.65;;
70216;SDS011;65567;55.684;37.570;2022-12-13T05:56:24;3.25;;;2.10;;
70216;SDS011;65567;55.684;37.570;2022-12-13T05:58:50;9.98;;;4.53;;
70216;SDS011;65567;55.684;37.570;2022-12-13T06:01:18;6.35;;;2.47;;
70216;SDS011;65567;55.684;37.570;2022-12-13T06:03:44;3.25;;;2.05;;
70216;SDS011;65567;55.684;37.570;2022-12-13T06:06:10;4.22;;;2.60;;
70216;SDS011;65567;55.684;37.570;2022-12-13T06:08:37;8.43;;;4.40;;
70216;SDS011;65567;55.684;37.570;2022-12-13T06:11:04;6.03;;;3.33;;
70216;SDS011;65567;55.684;37.570;2022-12-13T06:13:31;3.58;;;1.90;;
70216;SDS011;65567;55.684;37.570;2022-12-13T06:16:01;7.63;;;4.88;;
70216;SDS011;65567;55.684;37.570;2022-12-13T06:18:30;3.05;;;1.77;;
70216;SDS011;65567;55.684;37.570;2022-12-13T06:21:00;5.60;;;3.65;;
70216;SDS011;65567;55.684;37.570;2022-12-13T06:23:30;9.65;;;4.90;;
70216;SDS011;65567;55.684;37.570;2022-12-13T06:26:04;7.65;;;4.53;;
70216;SDS011;65567;55.684;37.570;2022-12-13T06:28:31;8.70;;;4.40;;
70216;SDS011;65567;55.684;37.570;2022-12-13T06:31:00;6.85;;;4.50;;
70216;SDS011;65567;55.684;37.570;2022-12-13T06:33:30;3.28;;;2.50;;
70216;SDS011;65567;55.684;37.570;2022-12-13T06:36:00;3.47;;;2.42;;
70216;SDS011;65567;55.684;37.570;2022-12-13T06:38:26;4.95;;;2.67;;
70216;SDS011;65567;55.684;37.570;2022-12-13T06:40:52;5.95;;;3.03;;
70216;SDS011;65567;55.684;37.570;2022-12-13T06:43:18;3.78;;;2.28;;
70216;SDS011;65567;55.684;37.570;2022-12-13T06:45:45;19.23;;;6.38;;
70216;SDS011;65567;55.684;37.570;2022-12-13T06:48:11;11.35;;;4.32;;
70216;SDS011;65567;55.684;37.570;2022-12-13T06:50:37;7.72;;;3.67;;
70216;SDS011;65567;55.684;37.570;2022-12-13T06:53:03;9.85;;;3.67;;
70216;SDS011;65567;55.684;37.570;2022-12-13T06:55:29;9.70;;;4.60;;
70216;SDS011;65567;55.684;37.570;2022-12-13T06:57:56;7.47;;;3.85;;
70216;SDS011;65567;55.684;37.570;2022-12-13T07:00:22;4.78;;;2.40;;
70216;SDS011;65567;55.684;37.570;2022-12-13T07:02:52;8.65;;;3.80;;
70216;SDS011;65567;55.684;37.570;2022-12-13T07:05:19;7.72;;;3.30;;
70216;SDS011;65567;55.684;37.570;2022-12-13T07:07:45;3.70;;;2.22;;
70216;SDS011;65567;55.684;37.570;2022-12-13T07:10:14;4.90;;;2.65;;
70216;SDS011;65567;55.684;37.570;2022-12-13T07:12:40;4.32;;;2.25;;
70216;SDS011;65567;55.684;37.570;2022-12-13T07:15:06;5.35;;;4.03;;
70216;SDS011;65567;55.684;37.570;2022-12-13T07:17:33;3.47;;;1.70;;
70216;SDS011;65567;55.684;37.570;2022-12-13T07:19:58;8.63;;;5.32;;
70216;SDS011;65567;55.684;37.570;2022-12-13T07:22:24;9.90;;;6.15;;
70216;SDS011;65567;55.684;37.570;2022-12-13T07:24:50;4.20;;;2.42;;
70216;SDS011;65567;55.684;37.570;2022-12-13T07:27:16;6.90;;;4.60;;
70216;SDS011;65567;55.684;37.570;2022-12-13T07:29:45;3.42;;;2.20;;
70216;SDS011;65567;55.684;37.570;2022-12-13T07:32:11;13.90;;;5.83;;
70216;SDS011;65567;55.684;37.570;2022-12-13T07:34:37;7.43;;;4.95;;
70216;SDS011;65567;55.684;37.570;2022-12-13T07:37:03;5.20;;;3.38;;
70216;SDS011;65567;55.684;37.570;2022-12-13T07:39:29;6.28;;;2.97;;
70216;SDS011;65567;55.684;37.570;2022-12-13T07:41:56;10.07;;;5.50;;
70216;SDS011;65567;55.684;37.570;2022-12-13T07:44:23;11.52;;;6.47;;
70216;SDS011;65567;55.684;37.570;2022-12-13T07:46:54;3.22;;;2.17;;
70216;SDS011;65567;55.684;37.570;2022-12-13T07:49:20;6.25;;;3.38;;
70216;SDS011;65567;55.684;37.570;2022-12-13T07:51:46;8.35;;;5.22;;
70216;SDS011;65567;55.684;37.570;2022-12-13T07:54:13;4.68;;;2.58;;
70216;SDS011;65567;55.684;37.570;2022-12-13T07:56:39;11.25;;;5.53;;
70216;SDS011;65567;55.684;37.570;2022-12-13T07:59:05;8.93;;;5.05;;
70216;SDS011;65567;55.684;37.570;2022-12-13T08:01:31;10.23;;;5.55;;
70216;SDS011;65567;55.684;37.570;2022-12-13T08:03:59;13.23;;;8.48;;
70216;SDS011;65567;55.684;37.570;2022-12-13T08:06:25;5.57;;;3.33;;
70216;SDS011;65567;55.684;37.570;2022-12-13T08:08:55;6.18;;;2.85;;
70216;SDS011;65567;55.684;37.570;2022-12-13T08:11:24;6.60;;;3.58;;
70216;SDS011;65567;55.684;37.570;2022-12-13T08:13:51;5.65;;;4.10;;
70216;SDS011;65567;55.684;37.570;2022-12-13T08:16:18;7.45;;;3.50;;
70216;SDS011;65567;55.684;37.570;2022-12-13T08:18:44;9.65;;;5.18;;
70216;SDS011;65567;55.684;37.570;2022-12-13T08:21:11;4.78;;;3.20;;
70216;SDS011;65567;55.684;37.570;2022-12-13T08:23:40;3.60;;;1.45;;
70216;SDS011;65567;55.684;37.570;2022-12-13T08:26:07;5.15;;;3.30;;
70216;SDS011;65567;55.684;37.570;2022-12-13T08:28:33;5.00;;;2.45;;
70216;SDS011;65567;55.684;37.570;2022-12-13T08:31:02;2.65;;;1.75;;
70216;SDS011;65567;55.684;37.570;2022-12-13T08:33:35;5.00;;;2.67;;
70216;SDS011;65567;55.684;37.570;2022-12-13T08:36:11;6.18;;;4.05;;
70216;SDS011;65567;55.684;37.570;2022-12-13T08:38:40;4.13;;;2.53;;
70216;SDS011;65567;55.684;37.570;2022-12-13T08:41:06;10.77;;;5.10;;
70216;SDS011;65567;55.684;37.570;2022-12-13T08:43:33;5.60;;;3.10;;
70216;SDS011;65567;55.684;37.570;2022-12-13T08:45:59;3.60;;;1.63;;
70216;SDS011;65567;55.684;37.570;2022-12-13T08:48:25;7.97;;;4.10;;
70216;SDS011;65567;55.684;37.570;2022-12-13T08:50:52;4.88;;;2.97;;
70216;SDS011;65567;55.684;37.570;2022-12-13T08:53:18;3.38;;;1.95;;
70216;SDS011;65567;55.684;37.570;2022-12-13T08:55:44;5.05;;;3.58;;
70216;SDS011;65567;55.684;37.570;2022-12-13T08:58:10;7.03;;;3.72;;
70216;SDS011;65567;55.684;37.570;2022-12-13T09:00:36;3.60;;;1.92;;
70216;SDS011;65567;55.684;37.570;2022-12-13T09:03:03;6.10;;;2.90;;
70216;SDS011;65567;55.684;37.570;2022-12-13T09:05:30;3.22;;;2.33;;
70216;SDS011;65567;55.684;37.570;2022-12-13T09:07:57;4.22;;;2.90;;
70216;SDS011;65567;55.684;37.570;2022-12-13T09:10:24;3.95;;;2.15;;
70216;SDS011;65567;55.684;37.570;2022-12-13T09:12:50;3.10;;;2.17;;
70216;SDS011;65567;55.684;37.570;2022-12-13T09:15:16;4.22;;;1.90;;
70216;SDS011;65567;55.684;37.570;2022-12-13T09:17:42;3.75;;;1.85;;
70216;SDS011;65567;55.684;37.570;2022-12-13T09:20:08;2.88;;;1.17;;
70216;SDS011;65567;55.684;37.570;2022-12-13T09:22:35;1.48;;;0.68;;
70216;SDS011;65567;55.684;37.570;2022-12-13T09:25:03;4.93;;;1.58;;
70216;SDS011;65567;55.684;37.570;2022-12-13T09:27:30;2.58;;;1.20;;
70216;SDS011;65567;55.684;37.570;2022-12-13T09:29:57;1.08;;;0.40;;
70216;SDS011;65567;55.684;37.570;2022-12-13T09:32:23;0.90;;;0.52;;
70216;SDS011;65567;55.684;37.570;2022-12-13T09:34:50;1.30;;;1.10;;
70216;SDS011;65567;55.684;37.570;2022-12-13T09:37:16;2.88;;;0.75;;
70216;SDS011;65567;55.684;37.570;2022-12-13T09:39:42;1.35;;;0.70;;
70216;SDS011;65567;55.684;37.570;2022-12-13T09:42:16;5.05;;;1.80;;
70216;SDS011;65567;55.684;37.570;2022-12-13T09:44:49;2.90;;;1.70;;
70216;SDS011;65567;55.684;37.570;2022-12-13T09:50:07;2.65;;;2.08;;
70216;SDS011;65567;55.684;37.570;2022-12-13T09:52:38;4.18;;;1.75;;
70216;SDS011;65567;55.684;37.570;2022-12-13T09:55:15;4.57;;;2.10;;
70216;SDS011;65567;55.684;37.570;2022-12-13T09:57:53;2.17;;;1.05;;
70216;SDS011;65567;55.684;37.570;2022-12-13T10:00:21;4.78;;;1.95;;
70216;SDS011;65567;55.684;37.570;2022-12-13T10:02:53;4.97;;;1.48;;
70216;SDS011;65567;55.684;37.570;2022-12-13T10:08:03;5.05;;;2.60;;
70216;SDS011;65567;55.684;37.570;2022-12-13T10:11:02;5.38;;;2.53;;
70216;SDS011;65567;55.684;37.570;2022-12-13T10:13:38;4.68;;;3.28;;
70216;SDS011;65567;55.684;37.570;2022-12-13T10:16:18;6.50;;;3.45;;
70216;SDS011;65567;55.684;37.570;2022-12-13T10:19:48;4.63;;;3.13;;
70216;SDS011;65567;55.684;37.570;2022-12-13T10:21:54;6.10;;;3.97;;
70216;SDS011;65567;55.684;37.570;2022-12-13T10:24:22;6.28;;;3.80;;
70216;SDS011;65567;55.684;37.570;2022-12-13T10:26:51;5.68;;;3.53;;
70216;SDS011;65567;55.684;37.570;2022-12-13T10:29:18;6.70;;;3.33;;
70216;SDS011;65567;55.684;37.570;2022-12-13T10:31:45;7.18;;;3.90;;
70216;SDS011;65567;55.684;37.570;2022-12-13T10:34:20;5.95;;;3.65;;
70216;SDS011;65567;55.684;37.570;2022-12-13T10:36:46;7.05;;;4.18;;
70216;SDS011;65567;55.684;37.570;2022-12-13T10:39:14;8.60;;;4.75;;
70216;SDS011;65567;55.684;37.570;2022-12-13T10:41:43;6.25;;;4.47;;
70216;SDS011;65567;55.684;37.570;2022-12-13T10:46:48;7.03;;;4.25;;
70216;SDS011;65567;55.684;37.570;2022-12-13T10:49:23;8.13;;;3.30;;
70216;SDS011;65567;55.684;37.570;2022-12-13T10:51:51;9.10;;;5.55;;
70216;SDS011;65567;55.684;37.570;2022-12-13T10:54:23;9.75;;;4.97;;
70216;SDS011;65567;55.684;37.570;2022-12-13T10:56:50;4.20;;;2.25;;
70216;SDS011;65567;55.684;37.570;2022-12-13T11:02:01;6.95;;;4.60;;
70216;SDS011;65567;55.684;37.570;2022-12-13T11:04:47;9.77;;;5.88;;
70216;SDS011;65567;55.684;37.570;2022-12-13T11:07:32;9.88;;;5.68;;
70216;SDS011;65567;55.684;37.570;2022-12-13T11:10:15;10.20;;;6.97;;
70216;SDS011;65567;55.684;37.570;2022-12-13T11:12:47;7.60;;;5.45;;
70216;SDS011;65567;55.684;37.570;2022-12-13T11:15:18;9.05;;;4.78;;
70216;SDS011;65567;55.684;37.570;2022-12-13T11:17:50;10.82;;;6.50;;
70216;SDS011;65567;55.684;37.570;2022-12-13T11:20:21;12.98;;;6.20;;
70216;SDS011;65567;55.684;37.570;2022-12-13T11:22:57;7.20;;;5.13;;
70216;SDS011;65567;55.684;37.570;2022-12-13T11:25:40;8.70;;;5.43;;
70216;SDS011;65567;55.684;37.570;2022-12-13T11:33:58;6.68;;;3.58;;
70216;SDS011;65567;55.684;37.570;2022-12-13T11:36:49;8.73;;;5.63;;
70216;SDS011;65567;55.684;37.570;2022-12-13T11:47:48;11.75;;;7.32;;
70216;SDS011;65567;55.684;37.570;2022-12-13T11:50:26;12.80;;;7.30;;
70216;SDS011;65567;55.684;37.570;2022-12-13T11:52:58;10.73;;;5.95;;
70216;SDS011;65567;55.684;37.570;2022-12-13T11:55:43;5.65;;;3.17;;
70216;SDS011;65567;55.684;37.570;2022-12-13T11:58:34;13.55;;;7.78;;
70216;SDS011;65567;55.684;37.570;2022-12-13T12:02:00;11.10;;;6.88;;
70216;SDS011;65567;55.684;37.570;2022-12-13T12:04:25;10.23;;;6.05;;
70216;SDS011;65567;55.684;37.570;2022-12-13T12:07:09;13.48;;;5.85;;
70216;SDS011;65567;55.684;37.570;2022-12-13T12:09:38;13.57;;;8.10;;
70216;SDS011;65567;55.684;37.570;2022-12-13T12:12:12;11.35;;;7.72;;
70216;SDS011;65567;55.684;37.570;2022-12-13T12:14:55;12.68;;;7.78;;
70216;SDS011;65567;55.684;37.570;2022-12-13T12:17:34;9.43;;;5.18;;
70216;SDS011;65567;55.684;37.570;2022-12-13T12:20:00;11.65;;;6.57;;
70216;SDS011;65567;55.684;37.570;2022-12-13T12:22:34;20.52;;;7.72;;
70216;SDS011;65567;55.684;37.570;2022-12-13T12:28:07;12.05;;;8.23;;
70216;SDS011;65567;55.684;37.570;2022-12-13T12:33:46;9.60;;;6.73;;
70216;SDS011;65567;55.684;37.570;2022-12-13T12:39:19;11.00;;;6.68;;
70216;SDS011;65567;55.684;37.570;2022-12-13T12:50:23;11.20;;;6.65;;
70216;SDS011;65567;55.684;37.570;2022-12-13T13:04:36;10.23;;;7.25;;
70216;SDS011;65567;55.684;37.570;2022-12-13T13:07:14;10.48;;;7.38;;
70216;SDS011;65567;55.684;37.570;2022-12-13T13:09:46;11.68;;;7.72;;
70216;SDS011;65567;55.684;37.570;2022-12-13T13:12:14;11.68;;;7.15;;
70216;SDS011;65567;55.684;37.570;2022-12-13T13:14:40;11.60;;;7.72;;
70216;SDS011;65567;55.684;37.570;2022-12-13T13:19:48;13.10;;;7.95;;
70216;SDS011;65567;55.684;37.570;2022-12-13T13:22:28;8.93;;;5.60;;
70216;SDS011;65567;55.684;37.570;2022-12-13T13:25:12;12.18;;;7.30;;
70216;SDS011;65567;55.684;37.570;2022-12-13T13:27:49;11.85;;;7.43;;
70216;SDS011;65567;55.684;37.570;2022-12-13T13:30:24;10.45;;;5.80;;
70216;SDS011;65567;55.684;37.570;2022-12-13T13:32:52;8.55;;;5.68;;
70216;SDS011;65567;55.684;37.570;2022-12-13T13:37:58;11.25;;;7.65;;
70216;SDS011;65567;55.684;37.570;2022-12-13T13:40:27;9.95;;;6.45;;
70216;SDS011;65567;55.684;37.570;2022-12-13T13:48:20;13.88;;;8.63;;
70216;SDS011;65567;55.684;37.570;2022-12-13T14:04:58;8.57;;;4.80;;
70216;SDS011;65567;55.684;37.570;2022-12-13T14:10:49;11.27;;;7.22;;
70216;SDS011;65567;55.684;37.570;2022-12-13T14:13:58;11.52;;;6.72;;
70216;SDS011;65567;55.684;37.570;2022-12-13T14:19:50;11.10;;;6.93;;
70216;SDS011;65567;55.684;37.570;2022-12-13T14:22:38;13.18;;;7.13;;
70216;SDS011;65567;55.684;37.570;2022-12-13T14:25:20;11.15;;;7.10;;
70216;SDS011;65567;55.684;37.570;2022-12-13T14:28:20;11.18;;;7.13;;
70216;SDS011;65567;55.684;37.570;2022-12-13T14:30:57;10.05;;;5.68;;
70216;SDS011;65567;55.684;37.570;2022-12-13T14:33:24;5.20;;;2.97;;
70216;SDS011;65567;55.684;37.570;2022-12-13T14:35:54;12.20;;;7.20;;
70216;SDS011;65567;55.684;37.570;2022-12-13T14:38:23;11.35;;;7.78;;
70216;SDS011;65567;55.684;37.570;2022-12-13T14:40:51;10.05;;;6.75;;
70216;SDS011;65567;55.684;37.570;2022-12-13T14:43:30;12.52;;;7.22;;
70216;SDS011;65567;55.684;37.570;2022-12-13T14:45:58;11.38;;;7.45;;
70216;SDS011;65567;55.684;37.570;2022-12-13T14:48:26;11.52;;;6.70;;
70216;SDS011;65567;55.684;37.570;2022-12-13T14:50:55;11.38;;;8.13;;
70216;SDS011;65567;55.684;37.570;2022-12-13T14:53:25;10.50;;;6.82;;
70216;SDS011;65567;55.684;37.570;2022-12-13T14:56:04;9.48;;;6.35;;
70216;SDS011;65567;55.684;37.570;2022-12-13T14:58:38;10.30;;;6.93;;
70216;SDS011;65567;55.684;37.570;2022-12-13T15:01:05;11.43;;;6.88;;
70216;SDS011;65567;55.684;37.570;2022-12-13T15:03:51;10.65;;;6.47;;
70216;SDS011;65567;55.684;37.570;2022-12-13T15:06:17;11.77;;;7.47;;
70216;SDS011;65567;55.684;37.570;2022-12-13T15:08:45;10.20;;;7.50;;
70216;SDS011;65567;55.684;37.570;2022-12-13T15:11:12;9.32;;;4.85;;
70216;SDS011;65567;55.684;37.570;2022-12-13T15:13:42;12.77;;;9.48;;
70216;SDS011;65567;55.684;37.570;2022-12-13T15:21:38;10.18;;;7.03;;
70216;SDS011;65567;55.684;37.570;2022-12-13T15:24:04;11.57;;;7.35;;
70216;SDS011;65567;55.684;37.570;2022-12-13T15:26:31;11.40;;;7.45;;
70216;SDS011;65567;55.684;37.570;2022-12-13T15:29:05;12.23;;;8.07;;
70216;SDS011;65567;55.684;37.570;2022-12-13T15:31:32;12.13;;;7.90;;
70216;SDS011;65567;55.684;37.570;2022-12-13T15:39:37;13.80;;;8.48;;
70216;SDS011;65567;55.684;37.570;2022-12-13T15:42:05;11.27;;;7.90;;
70216;SDS011;65567;55.684;37.570;2022-12-13T15:44:45;15.23;;;8.60;;
70216;SDS011;65567;55.684;37.570;2022-12-13T15:47:15;12.60;;;8.38;;
70216;SDS011;65567;55.684;37.570;2022-12-13T15:50:01;12.20;;;8.07;;
70216;SDS011;65567;55.684;37.570;2022-12-13T15:52:31;14.30;;;9.23;;
70216;SDS011;65567;55.684;37.570;2022-12-13T15:57:31;13.23;;;9.35;;
70216;SDS011;65567;55.684;37.570;2022-12-13T16:02:54;12.20;;;9.02;;
70216;SDS011;65567;55.684;37.570;2022-12-13T16:07:51;14.52;;;9.35;;
70216;SDS011;65567;55.684;37.570;2022-12-13T16:10:18;15.50;;;9.90;;
70216;SDS011;65567;55.684;37.570;2022-12-13T16:12:49;15.00;;;9.57;;
70216;SDS011;65567;55.684;37.570;2022-12-13T16:18:19;16.15;;;10.40;;
70216;SDS011;65567;55.684;37.570;2022-12-13T16:20:47;16.33;;;9.55;;
70216;SDS011;65567;55.684;37.570;2022-12-13T16:23:15;13.73;;;9.88;;
70216;SDS011;65567;55.684;37.570;2022-12-13T16:25:41;15.85;;;10.27;;
70216;SDS011;65567;55.684;37.570;2022-12-13T16:28:09;16.95;;;10.02;;
70216;SDS011;65567;55.684;37.570;2022-12-13T16:33:19;16.67;;;10.15;;
70216;SDS011;65567;55.684;37.570;2022-12-13T16:35:47;16.17;;;9.63;;
70216;SDS011;65567;55.684;37.570;2022-12-13T16:38:13;16.27;;;10.10;;
70216;SDS011;65567;55.684;37.570;2022-12-13T16:40:41;16.88;;;10.65;;
70216;SDS011;65567;55.684;37.570;2022-12-13T16:43:18;15.30;;;10.70;;
70216;SDS011;65567;55.684;37.570;2022-12-13T16:45:47;15.77;;;10.40;;
70216;SDS011;65567;55.684;37.570;2022-12-13T16:48:15;16.63;;;11.05;;
70216;SDS011;65567;55.684;37.570;2022-12-13T16:50:46;15.48;;;10.23;;
70216;SDS011;65567;55.684;37.570;2022-12-13T16:53:14;18.13;;;11.07;;
70216;SDS011;65567;55.684;37.570;2022-12-13T16:55:41;17.20;;;10.93;;
70216;SDS011;65567;55.684;37.570;2022-12-13T16:58:14;18.85;;;11.35;;